Monday, April 23, 2018, 1:52 AM GMT
Back to Local

CWJB, Ste Foy CS , Que.

Location: , , Canada Lat: 47.3
Local Time: 1:52 AM GMT ( 1:52 GMT) Lon: -71.267
Time Zone: GMT Elev: 298 ft

Show me the last for .
Show Decoded

2018-04-23 01:00 METAR CWJB 230100Z AUTO 21003KT 08/ RMK AO1 T0076 =
2018-04-23 00:00 METAR CWJB 230000Z AUTO 21004KT 10/ RMK AO1 T0096 =
2018-04-22 23:00 METAR CWJB 222300Z AUTO 32005KT 12/ RMK AO1 T0115 =
2018-04-22 22:00 METAR CWJB 222200Z AUTO 22004KT 11/ RMK AO1 SOG 01 PK WND 21019/2119 T0110 =
2018-04-22 21:00 METAR CWJB 222100Z AUTO 22010G19KT 10/ RMK AO1 SOG 01 PK WND 22019/2057 T0095 =
2018-04-22 20:00 METAR CWJB 222000Z AUTO 22009G15KT 11/ RMK AO1 SOG 02 PK WND 25019/1914 T0106 =
2018-04-22 19:00 METAR CWJB 221900Z AUTO 22009G15KT 10/ RMK AO1 SOG 03 T0100 =
2018-04-22 18:00 METAR CWJB 221800Z AUTO 22010KT 09/ RMK AO1 SOG 04 PK WND 23018/1723 T0093 =
2018-04-22 17:00 METAR CWJB 221700Z AUTO 21009G15KT 08/ RMK AO1 SOG 04 T0080 =
2018-04-22 16:00 METAR CWJB 221600Z AUTO 22008KT 07/ RMK AO1 SOG 05 T0074 =
2018-04-22 15:00 METAR CWJB 221500Z AUTO 25003KT 07/ RMK AO1 SOG 05 T0074 =
2018-04-22 14:00 METAR CWJB 221400Z AUTO 33006KT 05/ RMK AO1 SOG 05 T0054 =
2018-04-22 13:00 METAR CWJB 221300Z AUTO 32005KT 05/ RMK AO1 SOG 06 T0050 =
2018-04-22 12:00 METAR CWJB 221200Z AUTO 31003KT 02/ RMK AO1 SOG 06 T0022 =
2018-04-22 11:00 METAR CWJB 221100Z AUTO 32004KT 01/ RMK AO1 SOG 06 T0007 =
2018-04-22 10:00 METAR CWJB 221000Z AUTO 33002KT M01/ RMK AO1 SOG 06 T1005 =
2018-04-22 09:00 METAR CWJB 220900Z AUTO 32005KT 01/ RMK AO1 SOG 06 T0005 =
2018-04-22 08:00 METAR CWJB 220800Z AUTO 30002KT M00/ RMK AO1 SOG 06 T1004 =
2018-04-22 07:00 METAR CWJB 220700Z AUTO 31002KT 01/ RMK AO1 SOG 06 T0011 =
2018-04-22 06:00 METAR CWJB 220600Z AUTO 29002KT 02/ RMK AO1 SOG 07 T0023 =
2018-04-22 05:00 METAR CWJB 220500Z AUTO 21001KT 03/ RMK AO1 SOG 07 T0029 =
2018-04-22 04:00 METAR CWJB 220400Z AUTO 22002KT 04/ RMK AO1 SOG 06 T0040 =
2018-04-22 03:00 METAR CWJB 220300Z AUTO 31003KT 04/ RMK AO1 SOG 06 T0044 =
2018-04-22 02:00 METAR CWJB 220200Z AUTO 32004KT 05/ RMK AO1 SOG 06 T0050 =

Support USWX by starting your Amazon purchase here.